RKPC/CJU METAR and TAF weather

Enter ICAO airport designator
Station Type Date Time Source
RKPC METAR 2019/07/17 19:00 UTC NOAA

RKPC 171900Z 10003KT 0400 R07/P2000U R25/0600N FG BKN003 BKN150 23/23 Q1008 BECMG TL1920 1200 BR SCT003 BKN150


Station Type Date Time Source
RKPC Decoded METAR 2019/07/17 19:00 UTC NOAA

Cheju International Airport, Korea, South (RKPC) 33-30N 126-30E 28M
Jul 17, 2019 - 03:00 PM EDT / 2019.07.17 1900 UTC
Wind: from the E (100 degrees) at 3 MPH (3 KT):0
Visibility: less than 1 mile:0
Sky conditions: mostly cloudy
Weather: fog
Temperature: 73 F (23 C)
Dew Point: 73 F (23 C)
Relative Humidity: 100%
Pressure (altimeter): 29.77 in. Hg (1008 hPa)
ob: RKPC 171900Z 10003KT 0400 R07/P2000U R25/0600N FG BKN003 BKN150 23/23 Q1008 BECMG TL1920 1200 BR SCT003 BKN150
cycle: 19

Station Type Date Time Source
RKPC TAF 2019/07/17 18:09 UTC NOAA

TAF TAF RKPC 171700Z 1718/1824 06006KT 2500 -RA FEW005 BKN030 OVC100 TN23/1721Z TX27/1805Z TN23/1820Z
TEMPO 1718/1721 0600 FG BKN003 BKN050 OVC100
BECMG 1800/1801 08015G25KT 6000
BECMG 1806/1807 08007KT NSW
BECMG 1815/1816 16010KT 2800 -RA
BECMG 1823/1824 4200 RA

Example: see airport list